createdAt,value
2018-09-26T00:00:02.924Z,101660.00
2018-09-26T00:02:36.327Z,101668.00
2018-09-26T00:05:13.244Z,101661.00
2018-09-26T00:07:47.899Z,101675.00
2018-09-26T00:10:20.148Z,101676.00
2018-09-26T00:12:54.985Z,101676.00
2018-09-26T00:15:25.241Z,101673.00
2018-09-26T00:17:57.333Z,101682.00
2018-09-26T00:23:31.651Z,101686.00
2018-09-26T00:26:02.991Z,101681.00
2018-09-26T00:28:35.056Z,101675.00
2018-09-26T00:31:06.562Z,101677.00
2018-09-26T00:33:37.832Z,101674.00
2018-09-26T00:36:12.369Z,101683.00
2018-09-26T00:38:44.739Z,101694.00
2018-09-26T00:41:16.927Z,101691.00
2018-09-26T00:43:47.548Z,101688.00
2018-09-26T00:46:20.291Z,101687.00
2018-09-26T00:48:53.070Z,101687.00
2018-09-26T00:51:25.854Z,101685.00
2018-09-26T00:54:02.710Z,101673.00
2018-09-26T00:56:35.682Z,101667.00
2018-09-26T00:59:10.294Z,101664.00
2018-09-26T01:01:44.408Z,101664.00
2018-09-26T01:04:16.717Z,101669.00
2018-09-26T01:06:49.736Z,101673.00
2018-09-26T01:09:22.226Z,101671.00
2018-09-26T01:11:58.793Z,101660.00
2018-09-26T01:14:28.014Z,101660.00
2018-09-26T01:16:58.735Z,101661.00
2018-09-26T01:19:30.205Z,101655.00
2018-09-26T01:22:00.683Z,101651.00
2018-09-26T01:24:34.323Z,101648.00
2018-09-26T01:27:09.049Z,101648.00
2018-09-26T01:29:41.571Z,101640.00
2018-09-26T01:32:15.364Z,101640.00
2018-09-26T01:34:47.097Z,101632.00
2018-09-26T01:37:19.533Z,101622.00
2018-09-26T01:39:53.971Z,101621.00
2018-09-26T01:42:27.416Z,101618.00
2018-09-26T01:44:59.329Z,101612.00
2018-09-26T01:47:33.977Z,101609.00
2018-09-26T01:50:09.397Z,101603.00
2018-09-26T01:52:38.659Z,101610.00
2018-09-26T01:55:15.198Z,101608.00
2018-09-26T01:57:47.253Z,101611.00
2018-09-26T02:00:20.756Z,101617.00
2018-09-26T02:02:54.126Z,101621.00
2018-09-26T02:05:28.547Z,101631.00
2018-09-26T02:07:58.841Z,101630.00
2018-09-26T02:10:30.929Z,101629.00
2018-09-26T02:13:00.703Z,101630.00
2018-09-26T02:15:31.688Z,101628.00
2018-09-26T02:18:02.867Z,101632.00
2018-09-26T02:20:32.229Z,101634.00
2018-09-26T02:23:12.288Z,101634.00
2018-09-26T02:25:43.303Z,101634.00
2018-09-26T02:28:17.145Z,101631.00
2018-09-26T02:30:49.345Z,101631.00
2018-09-26T02:33:25.382Z,101628.00
2018-09-26T02:35:59.684Z,101627.00
2018-09-26T02:38:29.855Z,101627.00
2018-09-26T02:40:59.142Z,101633.00
2018-09-26T02:43:32.671Z,101632.00
2018-09-26T02:46:07.474Z,101641.00
2018-09-26T02:48:45.679Z,101637.00
2018-09-26T02:51:19.477Z,101637.00
2018-09-26T02:53:50.702Z,101637.00
2018-09-26T02:56:24.697Z,101630.00
2018-09-26T02:58:58.683Z,101627.00
2018-09-26T03:01:29.834Z,101623.00
2018-09-26T03:04:00.383Z,101625.00
2018-09-26T03:06:32.069Z,101615.00
2018-09-26T03:09:05.300Z,101610.00
2018-09-26T03:11:41.425Z,101599.00
2018-09-26T03:14:13.888Z,101596.00
2018-09-26T03:16:49.164Z,101592.00
2018-09-26T03:19:23.815Z,101594.00
2018-09-26T03:21:57.431Z,101599.00
2018-09-26T03:24:28.759Z,101608.00
2018-09-26T03:26:59.863Z,101611.00
2018-09-26T03:29:33.210Z,101605.00
2018-09-26T03:32:03.131Z,101604.00
2018-09-26T03:34:33.156Z,101601.00
2018-09-26T03:37:03.315Z,101601.00
2018-09-26T03:39:32.674Z,101597.00
2018-09-26T03:42:02.276Z,101601.00
2018-09-26T03:44:31.601Z,101607.00
2018-09-26T03:47:00.654Z,101608.00
2018-09-26T03:49:29.989Z,101607.00
2018-09-26T03:51:59.264Z,101606.00
2018-09-26T03:54:28.592Z,101590.00
2018-09-26T03:56:58.569Z,101593.00
2018-09-26T03:59:27.590Z,101590.00
2018-09-26T04:01:56.938Z,101595.00
2018-09-26T04:04:26.055Z,101588.00
2018-09-26T04:06:55.146Z,101594.00
2018-09-26T04:09:24.241Z,101598.00
2018-09-26T04:11:53.294Z,101605.00
2018-09-26T04:14:22.905Z,101609.00
2018-09-26T04:16:52.849Z,101608.00
2018-09-26T04:19:21.904Z,101617.00
2018-09-26T04:21:51.065Z,101619.00
2018-09-26T04:24:21.526Z,101613.00
2018-09-26T04:26:51.012Z,101611.00
2018-09-26T04:29:20.211Z,101602.00
2018-09-26T04:31:49.997Z,101607.00
2018-09-26T04:34:19.361Z,101608.00
2018-09-26T04:36:48.909Z,101606.00
2018-09-26T04:39:18.680Z,101609.00
2018-09-26T04:41:48.078Z,101610.00
2018-09-26T04:44:17.485Z,101611.00
2018-09-26T04:46:47.227Z,101615.00
2018-09-26T04:49:16.918Z,101621.00
2018-09-26T04:51:46.863Z,101624.00
2018-09-26T04:54:16.698Z,101620.00
2018-09-26T04:56:46.152Z,101619.00
2018-09-26T04:59:15.857Z,101621.00
2018-09-26T05:01:46.123Z,101621.00
2018-09-26T05:04:15.553Z,101622.00
2018-09-26T05:06:45.151Z,101626.00
2018-09-26T05:09:14.688Z,101633.00
2018-09-26T05:11:44.316Z,101634.00
2018-09-26T05:14:13.757Z,101637.00
2018-09-26T05:16:43.441Z,101630.00
2018-09-26T05:19:13.023Z,101624.00
2018-09-26T05:21:43.544Z,101628.00
2018-09-26T05:24:12.835Z,101627.00
2018-09-26T05:26:42.985Z,101620.00
2018-09-26T05:29:12.456Z,101624.00
2018-09-26T05:31:41.864Z,101624.00
2018-09-26T05:34:12.093Z,101622.00
2018-09-26T05:36:42.765Z,101621.00
2018-09-26T05:39:12.975Z,101626.00
2018-09-26T05:41:42.853Z,101627.00
2018-09-26T05:44:12.671Z,101629.00
2018-09-26T05:46:42.402Z,101623.00
2018-09-26T05:49:12.339Z,101627.00
2018-09-26T05:51:42.258Z,101621.00
2018-09-26T05:54:12.551Z,101620.00
2018-09-26T05:56:42.176Z,101620.00
2018-09-26T05:59:11.622Z,101614.00
2018-09-26T06:01:41.438Z,101615.00
2018-09-26T06:04:11.365Z,101611.00
2018-09-26T06:06:40.983Z,101608.00
2018-09-26T06:09:12.526Z,101607.00
2018-09-26T06:11:42.634Z,101598.00
2018-09-26T06:14:12.908Z,101604.00
2018-09-26T06:16:42.337Z,101607.00
2018-09-26T06:19:12.574Z,101608.00
2018-09-26T06:21:42.649Z,101611.00
2018-09-26T06:24:12.658Z,101605.00
2018-09-26T06:26:42.689Z,101610.00
2018-09-26T06:29:13.143Z,101612.00
2018-09-26T06:31:42.572Z,101617.00
2018-09-26T06:34:12.227Z,101613.00
2018-09-26T06:36:41.543Z,101609.00
2018-09-26T06:39:12.525Z,101609.00
2018-09-26T06:41:42.501Z,101615.00
2018-09-26T06:44:12.297Z,101616.00
2018-09-26T06:46:41.882Z,101618.00
2018-09-26T06:49:12.128Z,101620.00
2018-09-26T06:51:42.221Z,101616.00
2018-09-26T06:54:11.859Z,101616.00
2018-09-26T06:56:41.556Z,101618.00
2018-09-26T06:59:11.372Z,101617.00
2018-09-26T07:04:41.785Z,101619.00
2018-09-26T07:07:11.582Z,101614.00
2018-09-26T07:09:40.990Z,101616.00
2018-09-26T07:12:11.087Z,101617.00
2018-09-26T07:14:41.653Z,101600.00
2018-09-26T07:17:11.385Z,101599.00
2018-09-26T07:19:40.736Z,101596.00
2018-09-26T07:22:10.189Z,101590.00
2018-09-26T07:24:39.477Z,101593.00
2018-09-26T07:27:08.914Z,101600.00
2018-09-26T07:29:38.163Z,101595.00
2018-09-26T07:32:07.748Z,101582.00
2018-09-26T07:34:39.700Z,101585.00
2018-09-26T07:37:09.556Z,101587.00
2018-09-26T07:39:40.293Z,101585.00
2018-09-26T07:42:15.750Z,101578.00
2018-09-26T07:44:45.628Z,101581.00
2018-09-26T07:47:15.361Z,101587.00
2018-09-26T07:49:45.435Z,101584.00
2018-09-26T07:52:15.258Z,101586.00
2018-09-26T07:54:44.979Z,101582.00
2018-09-26T07:57:14.190Z,101583.00
2018-09-26T07:59:44.657Z,101595.00
2018-09-26T08:02:14.209Z,101594.00
2018-09-26T08:04:44.107Z,101586.00
2018-09-26T08:07:14.142Z,101600.00
2018-09-26T08:09:43.774Z,101599.00
2018-09-26T08:12:13.449Z,101596.00
2018-09-26T08:14:43.018Z,101598.00
2018-09-26T08:17:12.544Z,101606.00
2018-09-26T08:19:41.892Z,101603.00
2018-09-26T08:22:11.367Z,101609.00
2018-09-26T08:24:40.725Z,101607.00
2018-09-26T08:27:10.143Z,101602.00
2018-09-26T08:29:39.486Z,101607.00
2018-09-26T08:32:09.518Z,101608.00
2018-09-26T08:34:38.975Z,101605.00
2018-09-26T08:37:08.568Z,101606.00
2018-09-26T08:39:37.795Z,101603.00
2018-09-26T08:42:07.185Z,101602.00
2018-09-26T08:44:36.678Z,101604.00
2018-09-26T08:47:06.246Z,101607.00
2018-09-26T08:49:35.482Z,101604.00
2018-09-26T08:52:04.757Z,101599.00
2018-09-26T08:54:34.049Z,101600.00
2018-09-26T08:57:03.212Z,101602.00
2018-09-26T08:59:32.789Z,101599.00
2018-09-26T09:02:02.097Z,101597.00
2018-09-26T09:04:31.587Z,101596.00
2018-09-26T09:07:00.894Z,101601.00
2018-09-26T09:09:30.147Z,101595.00
2018-09-26T09:11:59.721Z,101586.00
2018-09-26T09:14:29.379Z,101587.00
2018-09-26T09:16:58.695Z,101584.00
2018-09-26T09:19:28.119Z,101587.00
2018-09-26T09:21:57.516Z,101581.00
2018-09-26T09:24:26.826Z,101579.00
2018-09-26T09:26:56.235Z,101580.00
2018-09-26T09:29:25.745Z,101583.00
2018-09-26T09:31:55.451Z,101583.00
2018-09-26T09:34:24.756Z,101584.00
2018-09-26T09:36:53.974Z,101580.00
2018-09-26T09:39:23.247Z,101580.00
2018-09-26T09:41:53.005Z,101585.00
2018-09-26T09:44:23.230Z,101578.00
2018-09-26T09:46:53.061Z,101578.00
2018-09-26T09:49:22.490Z,101575.00
2018-09-26T09:51:51.945Z,101574.00
2018-09-26T09:54:21.097Z,101570.00
2018-09-26T09:56:50.548Z,101571.00
2018-09-26T09:59:20.073Z,101568.00
2018-09-26T10:01:49.581Z,101573.00
2018-09-26T10:04:19.922Z,101573.00
2018-09-26T10:06:50.371Z,101575.00
2018-09-26T10:09:21.012Z,101574.00
2018-09-26T10:11:50.878Z,101572.00
2018-09-26T10:14:20.708Z,101572.00
2018-09-26T10:16:50.338Z,101577.00
2018-09-26T10:19:19.836Z,101570.00
2018-09-26T10:21:49.713Z,101571.00
2018-09-26T10:24:20.508Z,101569.00
2018-09-26T10:26:50.156Z,101567.00
2018-09-26T10:29:19.809Z,101570.00
2018-09-26T10:31:49.671Z,101566.00
2018-09-26T10:34:20.026Z,101563.00
2018-09-26T10:36:50.246Z,101565.00
2018-09-26T10:39:20.086Z,101566.00
2018-09-26T10:46:46.714Z,101569.00
2018-09-26T10:49:16.697Z,101565.00
2018-09-26T10:51:46.503Z,101570.00
2018-09-26T10:54:16.056Z,101569.00
2018-09-26T10:56:45.440Z,101570.00
2018-09-26T10:59:16.042Z,101569.00
2018-09-26T11:01:46.824Z,101566.00
2018-09-26T11:04:16.482Z,101568.00
2018-09-26T11:06:46.314Z,101564.00
2018-09-26T11:09:15.767Z,101562.00
2018-09-26T11:11:45.490Z,101565.00
2018-09-26T11:14:15.259Z,101563.00
2018-09-26T11:16:45.066Z,101564.00
2018-09-26T11:19:14.694Z,101555.00
2018-09-26T11:21:45.912Z,101556.00
2018-09-26T11:24:15.260Z,101550.00
2018-09-26T11:26:44.964Z,101544.00
2018-09-26T11:29:14.869Z,101541.00
2018-09-26T11:31:44.855Z,101542.00
2018-09-26T11:34:14.655Z,101540.00
2018-09-26T11:36:44.472Z,101534.00
2018-09-26T11:39:15.465Z,101536.00
2018-09-26T11:41:45.440Z,101530.00
2018-09-26T11:44:14.979Z,101531.00
2018-09-26T11:46:44.855Z,101532.00
2018-09-26T11:49:15.860Z,101525.00
2018-09-26T11:51:45.773Z,101527.00
2018-09-26T11:54:16.668Z,101519.00
2018-09-26T11:56:47.326Z,101517.00
2018-09-26T11:59:17.022Z,101514.00
2018-09-26T12:01:46.845Z,101511.00
2018-09-26T12:04:16.987Z,101504.00
2018-09-26T12:06:46.852Z,101500.00
2018-09-26T12:09:16.535Z,101493.00
2018-09-26T12:11:46.451Z,101494.00
2018-09-26T12:14:16.267Z,101493.00
2018-09-26T12:16:46.693Z,101484.00
2018-09-26T12:19:16.379Z,101486.00
2018-09-26T12:21:46.107Z,101493.00
2018-09-26T12:24:16.234Z,101482.00
2018-09-26T12:26:45.906Z,101481.00
2018-09-26T12:29:15.542Z,101477.00
2018-09-26T12:31:45.317Z,101473.00
2018-09-26T12:34:15.046Z,101469.00
2018-09-26T12:36:44.914Z,101470.00
2018-09-26T12:39:14.875Z,101464.00
2018-09-26T12:41:44.936Z,101463.00
2018-09-26T12:44:14.988Z,101459.00
2018-09-26T12:46:45.532Z,101456.00
2018-09-26T12:49:15.397Z,101456.00
2018-09-26T12:51:44.848Z,101443.00
2018-09-26T12:54:14.611Z,101442.00
2018-09-26T12:56:44.398Z,101450.00
2018-09-26T12:59:14.476Z,101444.00
2018-09-26T13:01:44.492Z,101444.00
2018-09-26T13:04:14.098Z,101443.00
2018-09-26T13:06:44.094Z,101447.00
2018-09-26T13:09:13.997Z,101441.00
2018-09-26T13:11:44.063Z,101440.00
2018-09-26T13:14:13.775Z,101442.00
2018-09-26T13:16:43.359Z,101444.00
2018-09-26T13:19:14.025Z,101439.00
2018-09-26T13:21:43.616Z,101434.00
2018-09-26T13:24:13.267Z,101431.00
2018-09-26T13:26:42.829Z,101430.00
2018-09-26T13:29:12.361Z,101423.00
2018-09-26T13:31:42.383Z,101422.00
2018-09-26T13:34:12.411Z,101423.00
2018-09-26T13:36:42.429Z,101419.00
2018-09-26T13:39:12.553Z,101424.00
2018-09-26T13:41:42.835Z,101422.00
2018-09-26T13:44:12.525Z,101423.00
2018-09-26T13:46:42.284Z,101420.00
2018-09-26T13:49:12.803Z,101415.00
2018-09-26T13:51:42.376Z,101414.00
2018-09-26T13:54:12.333Z,101406.00
2018-09-26T13:56:42.511Z,101409.00
2018-09-26T13:59:12.273Z,101398.00
2018-09-26T14:01:42.222Z,101397.00
2018-09-26T14:04:11.912Z,101393.00
2018-09-26T14:06:42.640Z,101391.00
2018-09-26T14:09:13.243Z,101391.00
2018-09-26T14:11:43.073Z,101388.00
2018-09-26T14:14:12.615Z,101385.00
2018-09-26T14:16:42.561Z,101380.00
2018-09-26T14:19:12.197Z,101383.00
2018-09-26T14:21:42.581Z,101378.00
2018-09-26T14:24:12.356Z,101373.00
2018-09-26T14:26:42.131Z,101374.00
2018-09-26T14:29:11.985Z,101368.00
2018-09-26T14:31:41.860Z,101367.00
2018-09-26T14:34:11.522Z,101373.00
2018-09-26T14:36:41.115Z,101372.00
2018-09-26T14:39:11.675Z,101373.00
2018-09-26T14:41:41.498Z,101369.00
2018-09-26T14:44:12.047Z,101370.00
2018-09-26T14:46:42.122Z,101371.00
2018-09-26T14:49:11.846Z,101367.00
2018-09-26T14:51:42.237Z,101365.00
2018-09-26T14:54:12.006Z,101357.00
2018-09-26T14:56:41.980Z,101358.00
2018-09-26T14:59:11.936Z,101356.00
2018-09-26T15:01:43.188Z,101353.00
2018-09-26T15:04:12.977Z,101347.00
2018-09-26T15:06:44.198Z,101351.00
2018-09-26T15:09:14.025Z,101346.00
2018-09-26T15:11:44.615Z,101346.00
2018-09-26T15:14:14.331Z,101344.00
2018-09-26T15:16:44.562Z,101344.00
2018-09-26T15:19:15.459Z,101345.00
2018-09-26T15:21:45.202Z,101347.00
2018-09-26T15:24:15.213Z,101350.00
2018-09-26T15:26:45.077Z,101352.00
2018-09-26T15:29:15.254Z,101356.00
2018-09-26T15:31:44.970Z,101349.00
2018-09-26T15:34:15.640Z,101351.00
2018-09-26T15:36:45.622Z,101349.00
2018-09-26T15:39:20.096Z,101355.00
2018-09-26T15:41:50.357Z,101355.00
2018-09-26T15:44:20.446Z,101353.00
2018-09-26T15:46:50.794Z,101353.00
2018-09-26T15:49:20.864Z,101355.00
2018-09-26T15:51:50.427Z,101357.00
2018-09-26T15:54:22.618Z,101355.00
2018-09-26T15:56:53.709Z,101358.00
2018-09-26T15:59:23.425Z,101358.00
2018-09-26T16:01:53.082Z,101351.00
2018-09-26T16:04:26.617Z,101346.00
2018-09-26T16:07:11.783Z,101344.00
2018-09-26T16:09:42.943Z,101343.00
2018-09-26T16:12:13.838Z,101328.00
2018-09-26T16:14:45.878Z,101336.00
2018-09-26T16:17:15.986Z,101336.00
2018-09-26T16:19:46.265Z,101340.00
2018-09-26T16:22:16.196Z,101334.00
2018-09-26T16:24:45.868Z,101339.00
2018-09-26T16:27:15.447Z,101342.00
2018-09-26T16:29:45.296Z,101338.00
2018-09-26T16:32:15.109Z,101343.00
2018-09-26T16:34:45.919Z,101342.00
2018-09-26T16:37:16.177Z,101345.00
2018-09-26T16:39:48.830Z,101337.00
2018-09-26T16:42:18.601Z,101337.00
2018-09-26T16:44:52.251Z,101335.00
2018-09-26T16:47:22.351Z,101338.00
2018-09-26T16:49:53.032Z,101336.00
2018-09-26T16:52:23.945Z,101331.00
2018-09-26T16:54:55.745Z,101335.00
2018-09-26T16:57:25.281Z,101335.00
2018-09-26T16:59:54.964Z,101333.00
2018-09-26T17:02:24.824Z,101337.00
2018-09-26T17:04:54.068Z,101337.00
2018-09-26T17:07:23.326Z,101334.00
2018-09-26T17:09:53.154Z,101329.00
2018-09-26T17:12:22.943Z,101330.00
2018-09-26T17:14:52.746Z,101329.00
2018-09-26T17:17:22.694Z,101326.00
2018-09-26T17:19:54.767Z,101330.00
2018-09-26T17:22:24.579Z,101331.00
2018-09-26T17:24:53.956Z,101333.00
2018-09-26T17:27:23.640Z,101333.00
2018-09-26T17:29:54.381Z,101333.00
2018-09-26T17:32:23.909Z,101330.00
2018-09-26T17:34:53.927Z,101329.00
2018-09-26T17:37:23.508Z,101324.00
2018-09-26T17:39:53.141Z,101328.00
2018-09-26T17:42:25.145Z,101331.00
2018-09-26T17:44:54.773Z,101332.00
2018-09-26T17:47:24.297Z,101340.00
2018-09-26T17:49:54.141Z,101340.00
2018-09-26T17:52:23.646Z,101342.00
2018-09-26T17:54:53.425Z,101344.00
2018-09-26T17:57:23.009Z,101348.00
2018-09-26T18:04:50.931Z,101354.00
2018-09-26T18:07:21.080Z,101357.00
2018-09-26T18:09:50.815Z,101356.00
2018-09-26T18:12:20.730Z,101353.00
2018-09-26T18:14:51.046Z,101352.00
2018-09-26T18:17:20.666Z,101349.00
2018-09-26T18:19:50.456Z,101356.00
2018-09-26T18:22:22.073Z,101359.00
2018-09-26T18:24:51.778Z,101367.00
2018-09-26T18:27:21.596Z,101364.00
2018-09-26T18:29:51.455Z,101368.00
2018-09-26T18:32:21.808Z,101368.00
2018-09-26T18:34:51.278Z,101377.00
2018-09-26T18:37:20.785Z,101369.00
2018-09-26T18:39:50.120Z,101375.00
2018-09-26T18:42:21.261Z,101368.00
2018-09-26T18:44:55.415Z,101370.00
2018-09-26T18:47:25.457Z,101375.00
2018-09-26T18:50:27.633Z,101373.00
2018-09-26T18:52:58.567Z,101374.00
2018-09-26T18:55:31.592Z,101371.00
2018-09-26T18:58:17.869Z,101367.00
2018-09-26T19:01:03.691Z,101366.00
2018-09-26T19:06:20.679Z,101366.00
2018-09-26T19:08:51.419Z,101372.00
2018-09-26T19:11:22.433Z,101367.00
2018-09-26T19:14:03.202Z,101369.00
2018-09-26T19:16:36.493Z,101369.00
2018-09-26T19:19:12.344Z,101368.00
2018-09-26T19:21:57.072Z,101367.00
2018-09-26T19:24:33.516Z,101361.00
2018-09-26T19:27:05.828Z,101369.00
2018-09-26T19:29:38.220Z,101370.00
2018-09-26T19:32:09.071Z,101375.00
2018-09-26T19:34:39.722Z,101375.00
2018-09-26T19:37:11.368Z,101377.00
2018-09-26T19:39:45.831Z,101368.00
2018-09-26T19:42:16.124Z,101370.00
2018-09-26T19:44:47.146Z,101375.00
2018-09-26T19:47:17.537Z,101377.00
2018-09-26T19:49:49.068Z,101378.00
2018-09-26T19:52:19.817Z,101382.00
2018-09-26T19:54:51.736Z,101383.00
2018-09-26T19:57:27.364Z,101379.00
2018-09-26T19:59:58.582Z,101387.00
2018-09-26T20:02:28.723Z,101387.00
2018-09-26T20:04:58.712Z,101392.00
2018-09-26T20:07:29.230Z,101392.00
2018-09-26T20:10:05.274Z,101394.00
2018-09-26T20:12:36.715Z,101393.00
2018-09-26T20:15:11.064Z,101392.00
2018-09-26T20:17:41.355Z,101385.00
2018-09-26T20:20:10.828Z,101382.00
2018-09-26T20:22:40.638Z,101386.00
2018-09-26T20:25:10.507Z,101387.00
2018-09-26T20:27:39.829Z,101383.00
2018-09-26T20:30:09.771Z,101377.00
2018-09-26T20:32:39.711Z,101376.00
2018-09-26T20:35:09.957Z,101380.00
2018-09-26T20:37:42.326Z,101386.00
2018-09-26T20:40:12.674Z,101392.00
2018-09-26T20:42:42.291Z,101383.00
2018-09-26T20:45:11.773Z,101385.00
2018-09-26T20:47:43.793Z,101381.00
2018-09-26T20:50:14.460Z,101385.00
2018-09-26T20:52:45.144Z,101387.00
2018-09-26T20:55:16.225Z,101389.00
2018-09-26T20:57:45.577Z,101391.00
2018-09-26T21:00:16.752Z,101383.00
2018-09-26T21:02:47.080Z,101388.00
2018-09-26T21:05:19.121Z,101394.00
2018-09-26T21:07:49.689Z,101389.00
2018-09-26T21:10:33.274Z,101391.00
2018-09-26T21:13:11.147Z,101384.00
2018-09-26T21:15:43.820Z,101393.00
2018-09-26T21:18:15.327Z,101394.00
2018-09-26T21:20:44.890Z,101386.00
2018-09-26T21:23:14.836Z,101398.00
2018-09-26T21:25:44.445Z,101389.00
2018-09-26T21:28:14.257Z,101393.00
2018-09-26T21:30:43.973Z,101388.00
2018-09-26T21:33:13.285Z,101383.00
2018-09-26T21:35:42.917Z,101378.00
2018-09-26T21:38:12.341Z,101380.00
2018-09-26T21:40:42.312Z,101386.00
2018-09-26T21:43:12.544Z,101385.00
2018-09-26T21:45:41.871Z,101388.00
2018-09-26T21:48:11.693Z,101387.00
2018-09-26T21:50:41.198Z,101390.00
2018-09-26T21:53:10.840Z,101392.00
2018-09-26T21:55:40.860Z,101388.00
2018-09-26T21:58:10.180Z,101387.00
2018-09-26T22:00:43.858Z,101384.00
2018-09-26T22:03:13.224Z,101388.00
2018-09-26T22:05:43.370Z,101389.00
2018-09-26T22:08:12.866Z,101389.00
2018-09-26T22:10:42.313Z,101391.00
2018-09-26T22:13:11.945Z,101395.00
2018-09-26T22:15:41.306Z,101397.00
2018-09-26T22:18:10.555Z,101397.00
2018-09-26T22:20:39.852Z,101397.00
2018-09-26T22:23:09.589Z,101397.00
2018-09-26T22:25:38.862Z,101392.00
2018-09-26T22:28:08.587Z,101397.00
2018-09-26T22:30:37.825Z,101405.00
2018-09-26T22:33:07.015Z,101404.00
2018-09-26T22:35:36.241Z,101405.00
2018-09-26T22:38:05.889Z,101408.00
2018-09-26T22:40:35.224Z,101399.00
2018-09-26T22:43:04.460Z,101405.00
2018-09-26T22:45:34.362Z,101402.00
2018-09-26T22:48:03.900Z,101405.00
2018-09-26T22:50:33.250Z,101408.00
2018-09-26T22:53:02.563Z,101405.00
2018-09-26T22:55:31.725Z,101399.00
2018-09-26T22:58:00.934Z,101393.00
2018-09-26T23:00:30.109Z,101391.00
2018-09-26T23:02:59.305Z,101385.00
2018-09-26T23:05:28.817Z,101389.00
2018-09-26T23:07:57.857Z,101383.00
2018-09-26T23:10:27.084Z,101379.00
2018-09-26T23:12:56.273Z,101371.00
2018-09-26T23:15:25.497Z,101367.00
2018-09-26T23:17:54.718Z,101369.00
2018-09-26T23:20:24.024Z,101369.00
2018-09-26T23:22:53.062Z,101367.00
2018-09-26T23:25:22.220Z,101360.00
2018-09-26T23:27:51.256Z,101360.00
2018-09-26T23:30:20.487Z,101362.00
2018-09-26T23:32:50.023Z,101361.00
2018-09-26T23:35:19.234Z,101361.00
2018-09-26T23:37:48.400Z,101360.00
2018-09-26T23:40:17.592Z,101353.00
2018-09-26T23:42:47.131Z,101358.00
2018-09-26T23:45:16.539Z,101361.00
2018-09-26T23:47:46.680Z,101354.00
2018-09-26T23:50:16.495Z,101348.00
2018-09-26T23:52:45.800Z,101338.00
2018-09-26T23:55:15.003Z,101338.00
2018-09-26T23:57:44.712Z,101337.00
